createdAt,value
2023-05-05T00:00:37.743Z,13.48
2023-05-05T00:01:40.172Z,13.35
2023-05-05T00:02:42.609Z,13.35
2023-05-05T00:03:44.969Z,13.45
2023-05-05T00:04:47.361Z,13.41
2023-05-05T00:05:50.442Z,13.42
2023-05-05T00:06:53.227Z,13.39
2023-05-05T00:07:55.451Z,13.33
2023-05-05T00:08:57.845Z,13.31
2023-05-05T00:10:00.048Z,13.42
2023-05-05T00:11:02.309Z,13.39
2023-05-05T00:12:05.146Z,13.38
2023-05-05T00:13:07.561Z,13.29
2023-05-05T00:14:09.782Z,13.23
2023-05-05T00:15:12.279Z,13.18
2023-05-05T00:16:14.993Z,13.09
2023-05-05T00:17:17.554Z,13.18
2023-05-05T00:18:20.912Z,13.20
2023-05-05T00:19:23.106Z,13.23
2023-05-05T00:20:25.545Z,13.29
2023-05-05T00:21:27.906Z,13.32
2023-05-05T00:22:30.396Z,12.98
2023-05-05T00:23:32.972Z,12.86
2023-05-05T00:24:36.024Z,12.82
2023-05-05T00:25:38.587Z,12.70
2023-05-05T00:26:41.040Z,12.69
2023-05-05T00:27:43.254Z,12.64
2023-05-05T00:28:45.933Z,12.56
2023-05-05T00:29:48.172Z,12.27
2023-05-05T00:30:50.495Z,12.20
2023-05-05T00:31:52.953Z,12.13
2023-05-05T00:32:55.663Z,11.97
2023-05-05T00:33:58.080Z,11.98
2023-05-05T00:35:00.345Z,12.11
2023-05-05T00:36:02.764Z,12.22
2023-05-05T00:37:05.065Z,12.14
2023-05-05T00:38:07.432Z,12.24
2023-05-05T00:39:10.211Z,12.17
2023-05-05T00:40:13.297Z,12.30
2023-05-05T00:41:15.527Z,12.33
2023-05-05T00:42:17.929Z,12.41
2023-05-05T00:43:21.333Z,12.43
2023-05-05T00:44:39.792Z,12.28
2023-05-05T00:45:44.320Z,12.29
2023-05-05T00:46:46.729Z,12.27
2023-05-05T00:47:53.614Z,12.29
2023-05-05T00:48:56.584Z,12.23
2023-05-05T00:49:59.024Z,12.43
2023-05-05T00:51:01.498Z,12.19
2023-05-05T00:52:05.178Z,12.27
2023-05-05T00:53:07.427Z,12.33
2023-05-05T00:54:09.679Z,12.40
2023-05-05T00:55:12.177Z,12.46
2023-05-05T00:56:16.828Z,12.47
2023-05-05T00:57:20.606Z,12.52
2023-05-05T00:58:23.116Z,12.52
2023-05-05T00:59:27.476Z,12.42
2023-05-05T01:00:34.285Z,12.49
2023-05-05T01:01:36.614Z,12.12
2023-05-05T01:02:40.275Z,11.99
2023-05-05T01:03:42.658Z,11.98
2023-05-05T01:04:45.017Z,11.80
2023-05-05T01:06:17.990Z,11.98
2023-05-05T01:07:37.756Z,12.15
2023-05-05T01:09:05.457Z,12.34
2023-05-05T01:10:20.759Z,12.41
2023-05-05T01:11:29.464Z,12.29
2023-05-05T01:12:52.163Z,12.39
2023-05-05T01:14:14.523Z,12.34
2023-05-05T01:15:32.626Z,12.27
2023-05-05T01:16:38.707Z,12.25
2023-05-05T01:17:53.232Z,12.32
2023-05-05T01:19:29.401Z,12.34
2023-05-05T01:20:55.688Z,12.28
2023-05-05T01:22:02.273Z,12.10
2023-05-05T01:23:09.300Z,12.19
2023-05-05T01:24:37.275Z,12.30
2023-05-05T01:26:05.743Z,12.23
2023-05-05T01:27:17.176Z,12.07
2023-05-05T01:28:54.476Z,11.95
2023-05-05T01:30:28.142Z,11.88
2023-05-05T01:31:39.797Z,11.69
2023-05-05T01:32:48.049Z,11.59
2023-05-05T01:33:59.028Z,11.67
2023-05-05T01:35:07.313Z,11.79
2023-05-05T01:36:15.665Z,11.80
2023-05-05T01:37:30.339Z,11.84
2023-05-05T01:38:38.122Z,11.91
2023-05-05T01:39:43.456Z,11.87
2023-05-05T01:40:50.993Z,12.01
2023-05-05T01:41:58.932Z,12.02
2023-05-05T01:43:03.854Z,11.93
2023-05-05T01:44:08.121Z,11.90
2023-05-05T01:45:13.753Z,11.85
2023-05-05T01:46:17.821Z,11.69
2023-05-05T01:47:23.472Z,11.78
2023-05-05T01:48:29.919Z,11.81
2023-05-05T01:49:34.373Z,11.95
2023-05-05T01:50:37.472Z,11.86
2023-05-05T01:51:40.957Z,11.79
2023-05-05T01:52:45.061Z,11.63
2023-05-05T01:53:48.150Z,11.72
2023-05-05T01:54:52.823Z,11.68
2023-05-05T01:55:58.348Z,11.72
2023-05-05T01:57:04.882Z,11.69
2023-05-05T01:58:08.257Z,11.67
2023-05-05T01:59:11.633Z,11.72
2023-05-05T02:00:16.588Z,11.73
2023-05-05T02:01:24.161Z,11.81
2023-05-05T02:02:28.608Z,11.90
2023-05-05T02:03:32.224Z,11.92
2023-05-05T02:04:37.094Z,11.81
2023-05-05T02:05:40.666Z,11.59
2023-05-05T02:06:44.380Z,11.48
2023-05-05T02:07:46.991Z,11.61
2023-05-05T02:08:51.295Z,11.72
2023-05-05T02:09:54.377Z,11.67
2023-05-05T02:10:57.820Z,11.57
2023-05-05T02:12:02.431Z,11.54
2023-05-05T02:13:05.504Z,11.67
2023-05-05T02:14:10.723Z,11.66
2023-05-05T02:15:15.337Z,11.66
2023-05-05T02:16:19.953Z,11.63
2023-05-05T02:17:23.947Z,11.61
2023-05-05T02:18:28.474Z,11.58
2023-05-05T02:19:36.348Z,11.45
2023-05-05T02:20:40.035Z,11.46
2023-05-05T02:21:42.676Z,11.54
2023-05-05T02:22:45.202Z,11.49
2023-05-05T02:23:51.761Z,11.48
2023-05-05T02:24:54.629Z,11.43
2023-05-05T02:26:09.183Z,11.51
2023-05-05T02:27:12.326Z,11.47
2023-05-05T02:28:22.515Z,11.51
2023-05-05T02:29:32.814Z,11.57
2023-05-05T02:30:36.570Z,11.38
2023-05-05T02:31:44.258Z,11.33
2023-05-05T02:32:53.959Z,11.48
2023-05-05T02:33:58.486Z,11.52
2023-05-05T02:35:17.442Z,11.56
2023-05-05T02:36:26.030Z,11.53
2023-05-05T02:37:34.125Z,11.60
2023-05-05T02:38:41.559Z,11.57
2023-05-05T02:39:51.785Z,11.45
2023-05-05T02:40:58.037Z,11.36
2023-05-05T02:42:05.832Z,11.32
2023-05-05T02:43:11.510Z,11.35
2023-05-05T02:44:15.592Z,11.18
2023-05-05T02:45:22.386Z,11.16
2023-05-05T02:46:26.035Z,11.28
2023-05-05T02:47:35.999Z,11.20
2023-05-05T02:48:38.474Z,11.19
2023-05-05T02:49:41.022Z,11.10
2023-05-05T02:50:43.957Z,11.04
2023-05-05T02:52:02.186Z,10.92
2023-05-05T02:53:09.123Z,10.80
2023-05-05T02:54:11.483Z,10.72
2023-05-05T02:55:15.036Z,10.70
2023-05-05T02:56:27.037Z,10.67
2023-05-05T02:58:04.794Z,10.75
2023-05-05T02:59:16.287Z,10.78
2023-05-05T03:00:23.598Z,10.81
2023-05-05T03:01:37.226Z,10.80
2023-05-05T03:03:05.811Z,10.89
2023-05-05T03:04:16.338Z,10.77
2023-05-05T03:05:28.557Z,10.88
2023-05-05T03:06:36.439Z,11.02
2023-05-05T03:07:43.017Z,11.04
2023-05-05T03:08:58.546Z,10.90
2023-05-05T03:10:18.736Z,10.83
2023-05-05T03:11:37.184Z,11.04
2023-05-05T03:12:51.145Z,11.06
2023-05-05T03:14:08.993Z,11.08
2023-05-05T03:15:13.760Z,10.98
2023-05-05T03:16:18.604Z,10.97
2023-05-05T03:17:23.974Z,10.91
2023-05-05T03:18:29.235Z,10.84
2023-05-05T03:19:37.973Z,10.89
2023-05-05T03:20:40.858Z,10.94
2023-05-05T03:21:45.852Z,10.89
2023-05-05T03:22:49.287Z,10.96
2023-05-05T03:23:52.007Z,10.69
2023-05-05T03:24:57.378Z,10.52
2023-05-05T03:26:00.253Z,10.38
2023-05-05T03:27:07.213Z,10.25
2023-05-05T03:28:14.650Z,10.15
2023-05-05T03:29:17.515Z,10.15
2023-05-05T03:30:20.265Z,10.26
2023-05-05T03:31:25.425Z,10.46
2023-05-05T03:32:31.901Z,10.44
2023-05-05T03:33:34.312Z,10.35
2023-05-05T03:34:37.835Z,10.47
2023-05-05T03:35:41.565Z,10.40
2023-05-05T03:36:47.425Z,10.35
2023-05-05T03:37:51.339Z,10.49
2023-05-05T03:38:54.255Z,10.55
2023-05-05T03:39:57.764Z,10.55
2023-05-05T03:41:05.297Z,10.74
2023-05-05T03:42:08.126Z,10.55
2023-05-05T03:43:11.647Z,10.59
2023-05-05T03:44:14.042Z,10.25
2023-05-05T03:45:17.225Z,10.40
2023-05-05T03:46:19.564Z,10.24
2023-05-05T03:47:24.560Z,10.09
2023-05-05T03:48:27.431Z,10.32
2023-05-05T03:49:30.087Z,10.43
2023-05-05T03:50:33.237Z,10.35
2023-05-05T03:51:36.458Z,10.47
2023-05-05T03:52:38.828Z,10.39
2023-05-05T03:53:41.532Z,10.33
2023-05-05T03:54:46.102Z,10.24
2023-05-05T03:55:48.541Z,10.32
2023-05-05T03:56:50.928Z,10.41
2023-05-05T03:57:53.244Z,10.55
2023-05-05T03:58:55.792Z,10.53
2023-05-05T03:59:58.101Z,10.67
2023-05-05T04:01:01.834Z,10.66
2023-05-05T04:02:04.527Z,10.36
2023-05-05T04:03:06.999Z,10.20
2023-05-05T04:04:13.133Z,10.28
2023-05-05T04:05:15.938Z,10.28
2023-05-05T04:06:18.616Z,10.33
2023-05-05T04:07:23.635Z,10.36
2023-05-05T04:08:25.897Z,10.29
2023-05-05T04:09:28.128Z,10.48
2023-05-05T04:10:30.728Z,10.36
2023-05-05T04:11:33.482Z,10.44
2023-05-05T04:12:36.303Z,10.55
2023-05-05T04:13:38.598Z,10.46
2023-05-05T04:14:40.892Z,10.19
2023-05-05T04:15:47.130Z,10.33
2023-05-05T04:16:50.533Z,10.27
2023-05-05T04:17:53.570Z,10.41
2023-05-05T04:18:56.101Z,10.22
2023-05-05T04:19:58.525Z,10.20
2023-05-05T04:21:01.213Z,10.20
2023-05-05T04:22:03.536Z,10.33
2023-05-05T04:23:07.126Z,10.40
2023-05-05T04:24:09.803Z,10.50
2023-05-05T04:25:12.285Z,10.45
2023-05-05T04:26:14.688Z,10.50
2023-05-05T04:27:16.941Z,10.50
2023-05-05T04:28:21.840Z,10.52
2023-05-05T04:29:24.435Z,10.60
2023-05-05T04:30:26.739Z,10.44
2023-05-05T04:31:29.303Z,10.53
2023-05-05T04:32:31.880Z,10.52
2023-05-05T04:33:34.763Z,10.53
2023-05-05T04:34:37.233Z,10.69
2023-05-05T04:35:39.975Z,10.79
2023-05-05T04:36:42.837Z,10.67
2023-05-05T04:37:46.095Z,10.53
2023-05-05T04:38:48.755Z,10.53
2023-05-05T04:39:51.134Z,10.48
2023-05-05T04:40:53.374Z,10.36
2023-05-05T04:41:55.853Z,10.35
2023-05-05T04:42:58.065Z,10.44
2023-05-05T04:44:00.782Z,10.73
2023-05-05T04:45:03.846Z,10.86
2023-05-05T04:46:07.162Z,11.00
2023-05-05T04:47:13.878Z,11.14
2023-05-05T04:48:16.860Z,11.15
2023-05-05T04:49:19.243Z,11.06
2023-05-05T04:50:21.687Z,10.91
2023-05-05T04:51:23.956Z,11.11
2023-05-05T04:52:26.357Z,11.21
2023-05-05T04:53:28.661Z,11.43
2023-05-05T04:54:30.864Z,11.33
2023-05-05T04:55:33.593Z,11.13
2023-05-05T04:56:36.091Z,11.05
2023-05-05T04:57:38.350Z,11.11
2023-05-05T04:58:40.764Z,11.02
2023-05-05T04:59:42.973Z,10.79
2023-05-05T05:00:45.201Z,10.88
2023-05-05T05:01:47.805Z,10.87
2023-05-05T05:02:50.074Z,10.95
2023-05-05T05:03:52.735Z,11.18
2023-05-05T05:04:54.995Z,11.26
2023-05-05T05:05:57.477Z,11.46
2023-05-05T05:07:01.566Z,11.43
2023-05-05T05:08:04.025Z,11.26
2023-05-05T05:09:06.194Z,11.20
2023-05-05T05:10:09.071Z,11.25
2023-05-05T05:11:12.174Z,11.38
2023-05-05T05:12:14.386Z,11.39
2023-05-05T05:13:16.644Z,11.70
2023-05-05T05:14:18.943Z,11.62
2023-05-05T05:15:21.265Z,11.71
2023-05-05T05:16:25.365Z,11.84
2023-05-05T05:17:30.195Z,11.86
2023-05-05T05:18:33.026Z,11.84
2023-05-05T05:19:35.206Z,11.92
2023-05-05T05:20:38.066Z,11.88
2023-05-05T05:21:40.465Z,11.73
2023-05-05T05:22:42.878Z,11.68
2023-05-05T05:23:49.666Z,11.72
2023-05-05T05:24:52.335Z,11.69
2023-05-05T05:25:55.898Z,11.78
2023-05-05T05:26:58.661Z,12.05
2023-05-05T05:28:10.235Z,12.23
2023-05-05T05:29:20.085Z,12.34
2023-05-05T05:30:23.529Z,12.16
2023-05-05T05:31:25.848Z,11.97
2023-05-05T05:32:30.664Z,11.88
2023-05-05T05:33:33.150Z,11.94
2023-05-05T05:34:35.790Z,11.85
2023-05-05T05:35:39.589Z,12.16
2023-05-05T05:36:41.941Z,12.47
2023-05-05T05:37:44.271Z,12.45
2023-05-05T05:38:46.708Z,12.32
2023-05-05T05:39:52.327Z,12.06
2023-05-05T05:40:56.710Z,12.31
2023-05-05T05:42:00.631Z,12.28
2023-05-05T05:43:03.226Z,11.98
2023-05-05T05:44:06.352Z,12.09
2023-05-05T05:45:09.304Z,11.98
2023-05-05T05:46:12.745Z,12.13
2023-05-05T05:47:17.045Z,12.33
2023-05-05T05:48:21.446Z,12.51
2023-05-05T05:49:23.685Z,12.71
2023-05-05T05:50:28.601Z,12.91
2023-05-05T05:51:32.060Z,12.91
2023-05-05T05:52:36.361Z,13.07
2023-05-05T05:53:40.646Z,13.29
2023-05-05T05:54:44.320Z,13.53
2023-05-05T05:55:47.007Z,13.87
2023-05-05T05:56:51.244Z,14.35
2023-05-05T05:57:53.564Z,14.40
2023-05-05T05:58:56.202Z,14.58
2023-05-05T06:00:01.627Z,15.01
2023-05-05T06:01:14.126Z,15.12
2023-05-05T06:02:16.740Z,15.76
2023-05-05T06:03:19.617Z,15.73
2023-05-05T06:04:22.534Z,15.26
2023-05-05T06:05:24.781Z,15.28
2023-05-05T06:06:28.025Z,15.46
2023-05-05T06:07:30.264Z,15.66
2023-05-05T06:08:32.898Z,14.94
2023-05-05T06:09:35.457Z,14.95
2023-05-05T06:10:37.751Z,14.66
2023-05-05T06:11:44.734Z,14.89
2023-05-05T06:12:46.967Z,15.03
2023-05-05T06:13:49.231Z,14.92
2023-05-05T06:14:51.894Z,15.06
2023-05-05T06:15:54.646Z,14.85
2023-05-05T06:16:56.927Z,14.61
2023-05-05T06:18:01.866Z,14.85
2023-05-05T06:19:09.411Z,14.88
2023-05-05T06:20:13.932Z,15.17
2023-05-05T06:21:16.534Z,15.76
2023-05-05T06:22:18.796Z,15.70
2023-05-05T06:23:21.277Z,15.72
2023-05-05T06:24:29.145Z,15.90
2023-05-05T06:25:31.944Z,16.29
2023-05-05T06:26:34.505Z,16.38
2023-05-05T06:27:36.698Z,16.96
2023-05-05T06:28:39.330Z,17.68
2023-05-05T06:29:41.709Z,17.91
2023-05-05T06:30:44.259Z,18.11
2023-05-05T06:31:47.112Z,18.04
2023-05-05T06:32:49.694Z,18.07
2023-05-05T06:33:52.168Z,18.05
2023-05-05T06:34:54.341Z,16.89
2023-05-05T06:35:56.515Z,16.90
2023-05-05T06:36:58.888Z,17.41
2023-05-05T06:38:01.151Z,17.08
2023-05-05T06:39:03.900Z,17.33
2023-05-05T06:40:07.947Z,17.59
2023-05-05T06:41:10.581Z,17.32
2023-05-05T06:42:12.967Z,17.20
2023-05-05T06:43:15.246Z,17.50
2023-05-05T06:44:22.157Z,16.70
2023-05-05T06:45:24.383Z,16.31
2023-05-05T06:46:26.644Z,16.20
2023-05-05T06:47:28.906Z,16.09
2023-05-05T06:48:31.296Z,16.53
2023-05-05T06:49:33.935Z,16.41
2023-05-05T06:50:36.503Z,16.97
2023-05-05T06:51:40.560Z,17.72
2023-05-05T06:52:44.421Z,17.82
2023-05-05T06:53:46.886Z,18.23
2023-05-05T06:54:49.237Z,18.62
2023-05-05T06:55:51.550Z,18.34
2023-05-05T06:56:53.787Z,18.27
2023-05-05T06:57:56.136Z,18.26
2023-05-05T06:58:58.540Z,18.14
2023-05-05T07:00:00.925Z,18.34
2023-05-05T07:01:04.082Z,18.32
2023-05-05T07:02:06.560Z,17.91
2023-05-05T07:03:09.150Z,17.52
2023-05-05T07:04:11.410Z,17.32
2023-05-05T07:05:14.126Z,17.14
2023-05-05T07:06:16.338Z,17.59
2023-05-05T07:07:18.509Z,18.20
2023-05-05T07:08:20.937Z,18.51
2023-05-05T07:09:23.107Z,19.22
2023-05-05T07:10:26.297Z,19.93
2023-05-05T07:11:28.517Z,20.43
2023-05-05T07:12:33.869Z,20.69
2023-05-05T07:13:38.339Z,20.12
2023-05-05T07:14:40.907Z,19.74
2023-05-05T07:15:49.414Z,19.55
2023-05-05T07:16:51.745Z,19.61
2023-05-05T07:17:54.110Z,19.70
2023-05-05T07:18:56.855Z,19.01
2023-05-05T07:19:59.211Z,19.07
2023-05-05T07:21:03.020Z,18.77
2023-05-05T07:22:06.323Z,19.17
2023-05-05T07:23:08.602Z,19.39
2023-05-05T07:24:10.796Z,19.77
2023-05-05T07:25:13.334Z,20.07
2023-05-05T07:26:15.935Z,20.04
2023-05-05T07:27:18.130Z,19.68
2023-05-05T07:28:22.333Z,19.70
2023-05-05T07:29:24.556Z,20.04
2023-05-05T07:30:26.767Z,19.55
2023-05-05T07:31:29.454Z,19.99
2023-05-05T07:32:31.846Z,20.58
2023-05-05T07:33:34.076Z,20.63
2023-05-05T07:34:37.937Z,20.12
2023-05-05T07:35:40.568Z,20.16
2023-05-05T07:36:43.000Z,20.63
2023-05-05T07:37:46.215Z,21.18
2023-05-05T07:38:48.454Z,20.98
2023-05-05T07:39:50.794Z,20.67
2023-05-05T07:40:52.985Z,20.63
2023-05-05T07:41:55.388Z,20.49
2023-05-05T07:42:57.562Z,20.22
2023-05-05T07:44:01.186Z,20.31
2023-05-05T07:45:04.730Z,20.97
2023-05-05T07:46:07.356Z,20.64
2023-05-05T07:47:09.648Z,20.73
2023-05-05T07:48:12.287Z,21.24
2023-05-05T07:49:14.692Z,21.47
2023-05-05T07:50:17.122Z,21.01
2023-05-05T07:51:19.332Z,20.66
2023-05-05T07:52:30.091Z,20.72
2023-05-05T07:53:41.423Z,21.10
2023-05-05T07:54:45.221Z,20.56
2023-05-05T07:55:47.677Z,20.94
2023-05-05T07:56:50.038Z,21.34
2023-05-05T07:57:52.229Z,21.17
2023-05-05T07:58:55.375Z,20.82
2023-05-05T07:59:57.760Z,20.95
2023-05-05T08:01:01.308Z,20.50
2023-05-05T08:02:03.914Z,20.71
2023-05-05T08:03:08.303Z,20.34
2023-05-05T08:04:12.334Z,20.41
2023-05-05T08:05:14.608Z,21.08
2023-05-05T08:06:21.781Z,20.97
2023-05-05T08:07:24.004Z,21.39
2023-05-05T08:08:26.963Z,21.55
2023-05-05T08:09:29.272Z,21.68
2023-05-05T08:10:31.500Z,21.48
2023-05-05T08:11:33.906Z,20.67
2023-05-05T08:12:37.063Z,20.12
2023-05-05T08:13:39.287Z,20.39
2023-05-05T08:14:42.677Z,20.82
2023-05-05T08:15:45.453Z,20.82
2023-05-05T08:16:47.765Z,21.51
2023-05-05T08:17:52.284Z,22.01
2023-05-05T08:18:54.582Z,21.95
2023-05-05T08:20:07.431Z,22.04
2023-05-05T08:21:10.827Z,22.23
2023-05-05T08:22:13.060Z,21.97
2023-05-05T08:23:15.402Z,22.25
2023-05-05T08:24:17.603Z,21.83
2023-05-05T08:25:19.801Z,21.67
2023-05-05T08:26:22.858Z,22.32
2023-05-05T08:27:25.088Z,22.65
2023-05-05T08:28:27.252Z,23.22
2023-05-05T08:29:29.512Z,22.31
2023-05-05T08:30:31.908Z,21.91
2023-05-05T08:31:37.142Z,21.78
2023-05-05T08:32:39.412Z,22.25
2023-05-05T08:33:41.754Z,22.22
2023-05-05T08:34:46.279Z,22.40
2023-05-05T08:35:49.409Z,22.61
2023-05-05T08:36:51.985Z,22.35
2023-05-05T08:37:55.441Z,22.86
2023-05-05T08:39:00.117Z,22.40
2023-05-05T08:40:02.471Z,22.66
2023-05-05T08:41:08.362Z,21.73
2023-05-05T08:42:12.332Z,21.71
2023-05-05T08:43:20.188Z,21.88
2023-05-05T08:44:22.580Z,22.21
2023-05-05T08:45:25.542Z,22.58
2023-05-05T08:46:28.491Z,22.50
2023-05-05T08:47:32.275Z,22.23
2023-05-05T08:48:36.622Z,22.52
2023-05-05T08:49:48.089Z,21.95
2023-05-05T08:50:57.401Z,22.13
2023-05-05T08:52:04.949Z,22.57
2023-05-05T08:53:11.852Z,23.18
2023-05-05T08:54:19.982Z,23.30
2023-05-05T08:55:25.501Z,23.15
2023-05-05T08:56:39.916Z,23.24
2023-05-05T08:57:56.145Z,22.96
2023-05-05T08:58:59.575Z,22.44
2023-05-05T09:00:04.206Z,22.84
2023-05-05T09:01:07.693Z,23.02
2023-05-05T09:02:10.613Z,23.02
2023-05-05T09:03:13.582Z,22.85
2023-05-05T09:04:16.787Z,22.81
2023-05-05T09:05:18.948Z,23.04
2023-05-05T09:06:22.376Z,22.87
2023-05-05T09:07:25.119Z,23.41
2023-05-05T09:08:28.329Z,23.85
2023-05-05T09:09:30.883Z,23.51
2023-05-05T09:10:34.101Z,23.63
2023-05-05T09:11:37.578Z,23.84
2023-05-05T09:12:42.899Z,23.87
2023-05-05T09:13:45.170Z,23.55
2023-05-05T09:14:47.732Z,22.45
2023-05-05T09:15:50.114Z,22.15
2023-05-05T09:16:52.373Z,22.19
2023-05-05T09:17:57.745Z,22.31
2023-05-05T09:19:04.517Z,22.61
2023-05-05T09:20:08.401Z,23.12
2023-05-05T09:21:24.813Z,22.37
2023-05-05T09:22:43.091Z,22.66
2023-05-05T09:24:09.118Z,23.33
2023-05-05T09:25:16.538Z,23.26
2023-05-05T09:26:18.920Z,23.35
2023-05-05T09:27:23.360Z,23.20
2023-05-05T09:28:26.037Z,22.99
2023-05-05T09:29:28.942Z,22.15
2023-05-05T09:30:31.557Z,22.51
2023-05-05T09:31:36.188Z,22.20
2023-05-05T09:32:49.014Z,22.14
2023-05-05T09:33:51.699Z,21.80
2023-05-05T09:34:59.000Z,22.39
2023-05-05T09:36:01.589Z,22.53
2023-05-05T09:37:04.118Z,22.84
2023-05-05T09:38:15.214Z,22.84
2023-05-05T09:39:20.193Z,22.42
2023-05-05T09:40:22.717Z,22.77
2023-05-05T09:41:42.341Z,22.47
2023-05-05T09:42:45.074Z,22.52
2023-05-05T09:43:52.489Z,22.23
2023-05-05T09:44:54.796Z,21.94
2023-05-05T09:46:07.797Z,21.35
2023-05-05T09:47:26.047Z,21.58
2023-05-05T09:48:32.561Z,21.90
2023-05-05T09:49:36.244Z,22.14
2023-05-05T09:50:44.768Z,21.80
2023-05-05T09:51:48.149Z,21.75
2023-05-05T09:53:01.866Z,22.28
2023-05-05T09:54:04.130Z,22.52
2023-05-05T09:55:08.184Z,22.37
2023-05-05T09:56:10.533Z,22.84
2023-05-05T09:57:33.556Z,23.33
2023-05-05T09:58:36.301Z,23.29
2023-05-05T09:59:39.040Z,22.96
2023-05-05T10:00:41.573Z,22.71
2023-05-05T10:01:44.250Z,22.56
2023-05-05T10:02:46.857Z,22.60
2023-05-05T10:03:52.534Z,22.58
2023-05-05T10:05:07.373Z,22.46
2023-05-05T10:06:09.832Z,21.96
2023-05-05T10:07:23.248Z,21.97
2023-05-05T10:08:28.023Z,22.09
2023-05-05T10:09:31.914Z,22.46
2023-05-05T10:10:35.232Z,22.12
2023-05-05T10:11:37.528Z,22.50
2023-05-05T10:12:40.363Z,22.48
2023-05-05T10:13:43.015Z,22.33
2023-05-05T10:14:45.777Z,22.39
2023-05-05T10:15:51.498Z,22.65
2023-05-05T10:16:55.532Z,22.67
2023-05-05T10:18:07.460Z,22.67
2023-05-05T10:19:14.321Z,22.30
2023-05-05T10:20:18.876Z,22.04
2023-05-05T10:21:21.756Z,22.30
2023-05-05T10:22:26.171Z,22.02
2023-05-05T10:23:36.112Z,21.43
2023-05-05T10:24:55.343Z,21.27
2023-05-05T10:26:07.379Z,21.40
2023-05-05T10:27:19.090Z,21.78
2023-05-05T10:28:32.536Z,21.92
2023-05-05T10:30:04.455Z,21.92
2023-05-05T10:31:24.489Z,21.62
2023-05-05T10:32:56.836Z,21.46
2023-05-05T10:36:38.658Z,21.54
2023-05-05T10:37:41.691Z,21.52
2023-05-05T10:38:46.609Z,21.32
2023-05-05T10:39:50.599Z,21.29
2023-05-05T10:40:53.230Z,21.38
2023-05-05T10:41:55.659Z,21.16
2023-05-05T10:42:59.321Z,21.32
2023-05-05T10:44:03.765Z,21.40
2023-05-05T10:45:07.821Z,21.36
2023-05-05T10:46:11.256Z,21.14
2023-05-05T10:47:13.822Z,20.88
2023-05-05T10:48:25.593Z,20.59
2023-05-05T10:50:04.017Z,21.08
2023-05-05T10:51:39.558Z,21.42
2023-05-05T10:53:20.666Z,21.38
2023-05-05T10:54:38.531Z,21.42
2023-05-05T10:55:57.286Z,21.80
2023-05-05T10:57:02.801Z,21.64
2023-05-05T10:58:05.025Z,21.46
2023-05-05T10:59:38.669Z,21.48
2023-05-05T11:00:41.369Z,21.61
2023-05-05T11:01:43.837Z,21.66
2023-05-05T11:02:46.277Z,21.78
2023-05-05T11:03:48.785Z,21.44
2023-05-05T11:05:21.549Z,21.48
2023-05-05T11:06:24.042Z,21.73
2023-05-05T11:07:27.689Z,22.07
2023-05-05T11:08:34.051Z,21.92
2023-05-05T11:09:53.835Z,21.29
2023-05-05T11:10:56.198Z,21.59
2023-05-05T11:12:03.498Z,21.35
2023-05-05T11:13:08.667Z,21.43
2023-05-05T11:14:22.369Z,21.71
2023-05-05T11:15:27.339Z,21.67
2023-05-05T11:16:43.559Z,21.47
2023-05-05T11:17:47.783Z,21.85
2023-05-05T11:18:50.324Z,22.00
2023-05-05T11:19:53.367Z,21.67
2023-05-05T11:20:58.348Z,21.62
2023-05-05T11:22:04.167Z,21.65
2023-05-05T11:23:06.608Z,21.84
2023-05-05T11:24:29.277Z,22.18
2023-05-05T11:25:34.501Z,21.97
2023-05-05T11:26:51.478Z,21.88
2023-05-05T11:28:10.691Z,22.04
2023-05-05T11:29:13.082Z,22.17
2023-05-05T11:30:15.630Z,22.24
2023-05-05T11:31:19.226Z,22.35
2023-05-05T11:32:21.498Z,22.12
2023-05-05T11:33:31.851Z,22.04
2023-05-05T11:34:34.377Z,22.22
2023-05-05T11:35:55.568Z,21.99
2023-05-05T11:37:03.427Z,22.00
2023-05-05T11:38:07.993Z,21.75
2023-05-05T11:39:24.166Z,21.64
2023-05-05T11:40:36.957Z,21.86
2023-05-05T11:42:06.547Z,21.71
2023-05-05T11:43:12.125Z,21.37
2023-05-05T11:44:16.625Z,21.64
2023-05-05T11:45:21.740Z,21.95
2023-05-05T11:46:24.035Z,22.19
2023-05-05T11:47:28.270Z,22.18
2023-05-05T11:48:30.634Z,22.15
2023-05-05T11:49:35.376Z,22.24
2023-05-05T11:50:37.963Z,22.42
2023-05-05T11:51:40.396Z,22.31
2023-05-05T11:52:43.018Z,22.40
2023-05-05T11:53:49.716Z,22.44
2023-05-05T11:54:52.000Z,21.91
2023-05-05T11:56:06.966Z,21.72
2023-05-05T11:57:09.389Z,21.81
2023-05-05T11:58:18.708Z,21.85
2023-05-05T11:59:21.696Z,21.81
2023-05-05T12:00:33.916Z,22.18
2023-05-05T12:01:42.878Z,22.37
2023-05-05T12:02:45.423Z,22.39
2023-05-05T12:03:48.122Z,22.42
2023-05-05T12:04:51.317Z,22.39
2023-05-05T12:05:56.719Z,22.46
2023-05-05T12:07:00.039Z,22.71
2023-05-05T12:08:02.302Z,22.70
2023-05-05T12:09:04.710Z,22.88
2023-05-05T12:10:07.859Z,22.25
2023-05-05T12:11:11.695Z,22.16
2023-05-05T12:12:15.302Z,22.35
2023-05-05T12:13:21.173Z,22.32
2023-05-05T12:14:25.610Z,22.61
2023-05-05T12:15:29.700Z,22.46
2023-05-05T12:16:31.991Z,22.40
2023-05-05T12:17:42.865Z,22.14
2023-05-05T12:18:45.429Z,22.27
2023-05-05T12:19:54.704Z,22.25
2023-05-05T12:20:56.961Z,22.38
2023-05-05T12:22:03.127Z,22.29
2023-05-05T12:23:05.661Z,22.36
2023-05-05T12:24:13.174Z,22.74
2023-05-05T12:25:16.337Z,22.50
2023-05-05T12:26:26.432Z,22.74
2023-05-05T12:27:29.256Z,22.79
2023-05-05T12:28:46.393Z,23.01
2023-05-05T12:29:49.266Z,23.42
2023-05-05T12:31:00.740Z,23.59
2023-05-05T12:32:04.250Z,23.26
2023-05-05T12:33:09.094Z,22.99
2023-05-05T12:34:12.015Z,22.72
2023-05-05T12:35:14.710Z,22.25
2023-05-05T12:36:17.075Z,22.38
2023-05-05T12:37:20.946Z,22.59
2023-05-05T12:38:23.377Z,22.73
2023-05-05T12:39:36.269Z,22.87
2023-05-05T12:40:51.778Z,23.13
2023-05-05T12:42:05.249Z,23.08
2023-05-05T12:43:07.880Z,22.55
2023-05-05T12:44:10.191Z,22.40
2023-05-05T12:45:17.688Z,22.53
2023-05-05T12:46:20.094Z,22.79
2023-05-05T12:47:32.870Z,23.10
2023-05-05T12:48:38.036Z,22.87
2023-05-05T12:49:50.977Z,22.62
2023-05-05T12:50:53.268Z,22.86
2023-05-05T12:51:56.991Z,22.74
2023-05-05T12:52:59.236Z,22.58
2023-05-05T12:54:12.031Z,22.70
2023-05-05T12:55:14.517Z,22.37
2023-05-05T12:56:36.487Z,22.60
2023-05-05T12:57:39.625Z,22.47
2023-05-05T12:58:50.821Z,22.53
2023-05-05T12:59:53.748Z,22.57
2023-05-05T13:01:09.103Z,22.54
2023-05-05T13:02:11.430Z,22.58
2023-05-05T13:03:20.313Z,22.35
2023-05-05T13:04:24.087Z,22.64
2023-05-05T13:05:33.524Z,22.51
2023-05-05T13:06:36.196Z,22.73
2023-05-05T13:07:50.811Z,23.04
2023-05-05T13:08:53.312Z,23.02
2023-05-05T13:10:10.803Z,23.14
2023-05-05T13:11:13.669Z,23.15
2023-05-05T13:12:18.196Z,23.30
2023-05-05T13:13:20.499Z,23.18
2023-05-05T13:14:23.401Z,23.31
2023-05-05T13:15:26.193Z,23.20
2023-05-05T13:16:28.576Z,23.25
2023-05-05T13:17:33.353Z,23.29
2023-05-05T13:18:49.679Z,23.38
2023-05-05T13:19:52.232Z,23.18
2023-05-05T13:20:54.561Z,23.10
2023-05-05T13:21:58.113Z,23.25
2023-05-05T13:23:00.360Z,23.24
2023-05-05T13:24:18.913Z,22.99
2023-05-05T13:25:25.008Z,22.71
2023-05-05T13:26:28.291Z,22.72
2023-05-05T13:27:30.537Z,22.82
2023-05-05T13:28:32.755Z,22.97
2023-05-05T13:29:35.213Z,22.70
2023-05-05T13:30:37.425Z,22.70
2023-05-05T13:31:39.982Z,22.92
2023-05-05T13:32:42.512Z,23.00
2023-05-05T13:33:44.984Z,23.06
2023-05-05T13:34:47.471Z,22.84
2023-05-05T13:35:49.746Z,23.12
2023-05-05T13:36:52.119Z,23.10
2023-05-05T13:37:54.574Z,23.17
2023-05-05T13:38:56.889Z,23.15
2023-05-05T13:40:00.575Z,23.33
2023-05-05T13:41:03.119Z,23.70
2023-05-05T13:42:05.486Z,23.49
2023-05-05T13:43:07.882Z,23.18
2023-05-05T13:44:10.292Z,22.93
2023-05-05T13:45:14.344Z,22.99
2023-05-05T13:46:19.584Z,23.01
2023-05-05T13:47:22.524Z,22.82
2023-05-05T13:48:25.049Z,22.54
2023-05-05T13:49:27.287Z,22.63
2023-05-05T13:50:29.862Z,22.80
2023-05-05T13:51:32.981Z,22.91
2023-05-05T13:52:35.613Z,22.90
2023-05-05T13:53:39.895Z,22.60
2023-05-05T13:54:42.466Z,22.38
2023-05-05T13:55:45.020Z,22.51
2023-05-05T13:56:47.289Z,22.67
2023-05-05T13:57:49.856Z,22.67
2023-05-05T13:58:52.430Z,22.45
2023-05-05T13:59:54.619Z,22.40
2023-05-05T14:00:57.030Z,22.58
2023-05-05T14:02:00.935Z,22.75
2023-05-05T14:03:03.278Z,22.76
2023-05-05T14:04:06.090Z,22.50
2023-05-05T14:05:09.410Z,22.64
2023-05-05T14:06:11.964Z,22.52